sensor_id;sensor_type;location;lat;lon;timestamp;pressure;altitude;pressure_sealevel;temperature;humidity
49835;BME280;35729;52.090;13.162;2022-08-19T00:00:08;100284.94;;;19.54;100.00
49835;BME280;35729;52.090;13.162;2022-08-19T00:02:40;100295.38;;;19.57;100.00
49835;BME280;35729;52.090;13.162;2022-08-19T00:05:11;100300.59;;;19.59;100.00
49835;BME280;35729;52.090;13.162;2022-08-19T00:07:41;100309.44;;;19.59;100.00
49835;BME280;35729;52.090;13.162;2022-08-19T00:10:13;100311.22;;;19.59;100.00
49835;BME280;35729;52.090;13.162;2022-08-19T00:12:42;100306.78;;;19.59;100.00
49835;BME280;35729;52.090;13.162;2022-08-19T00:15:15;100293.47;;;19.59;100.00
49835;BME280;35729;52.090;13.162;2022-08-19T00:17:46;100280.56;;;19.53;100.00
49835;BME280;35729;52.090;13.162;2022-08-19T00:20:17;100289.91;;;19.46;100.00
49835;BME280;35729;52.090;13.162;2022-08-19T00:22:47;100313.13;;;19.44;100.00
49835;BME280;35729;52.090;13.162;2022-08-19T00:25:16;100327.16;;;19.46;100.00
49835;BME280;35729;52.090;13.162;2022-08-19T00:27:45;100333.25;;;19.48;100.00
49835;BME280;35729;52.090;13.162;2022-08-19T00:30:16;100332.06;;;19.52;100.00
49835;BME280;35729;52.090;13.162;2022-08-19T00:32:45;100322.50;;;19.49;100.00
49835;BME280;35729;52.090;13.162;2022-08-19T00:35:14;100334.06;;;19.48;100.00
49835;BME280;35729;52.090;13.162;2022-08-19T00:37:42;100336.75;;;19.48;100.00
49835;BME280;35729;52.090;13.162;2022-08-19T00:40:12;100353.75;;;19.46;100.00
49835;BME280;35729;52.090;13.162;2022-08-19T00:42:41;100358.22;;;19.45;100.00
49835;BME280;35729;52.090;13.162;2022-08-19T00:45:13;100360.25;;;19.42;100.00
49835;BME280;35729;52.090;13.162;2022-08-19T00:47:45;100368.44;;;19.39;100.00
49835;BME280;35729;52.090;13.162;2022-08-19T00:50:16;100356.06;;;19.37;100.00
49835;BME280;35729;52.090;13.162;2022-08-19T00:52:47;100346.56;;;19.33;100.00
49835;BME280;35729;52.090;13.162;2022-08-19T00:55:20;100333.88;;;19.24;100.00
49835;BME280;35729;52.090;13.162;2022-08-19T00:57:53;100340.25;;;19.21;100.00
49835;BME280;35729;52.090;13.162;2022-08-19T01:00:25;100341.31;;;19.19;100.00
49835;BME280;35729;52.090;13.162;2022-08-19T01:02:56;100342.34;;;19.16;100.00
49835;BME280;35729;52.090;13.162;2022-08-19T01:05:28;100320.41;;;19.13;100.00
49835;BME280;35729;52.090;13.162;2022-08-19T01:07:59;100314.34;;;19.11;100.00
49835;BME280;35729;52.090;13.162;2022-08-19T01:10:35;100314.75;;;19.04;100.00
49835;BME280;35729;52.090;13.162;2022-08-19T01:13:13;100309.63;;;19.01;100.00
49835;BME280;35729;52.090;13.162;2022-08-19T01:15:45;100312.50;;;18.98;100.00
49835;BME280;35729;52.090;13.162;2022-08-19T01:18:19;100301.09;;;18.96;100.00
49835;BME280;35729;52.090;13.162;2022-08-19T01:20:48;100288.00;;;18.93;100.00
49835;BME280;35729;52.090;13.162;2022-08-19T01:23:19;100290.66;;;18.93;100.00
49835;BME280;35729;52.090;13.162;2022-08-19T01:26:09;100288.19;;;18.90;100.00
49835;BME280;35729;52.090;13.162;2022-08-19T01:28:39;100280.41;;;18.87;100.00
49835;BME280;35729;52.090;13.162;2022-08-19T01:31:12;100280.41;;;18.87;100.00
49835;BME280;35729;52.090;13.162;2022-08-19T01:33:41;100289.31;;;18.86;100.00
49835;BME280;35729;52.090;13.162;2022-08-19T01:36:12;100299.00;;;18.87;100.00
49835;BME280;35729;52.090;13.162;2022-08-19T01:38:44;100290.25;;;18.85;100.00
49835;BME280;35729;52.090;13.162;2022-08-19T01:41:12;100282.28;;;18.85;100.00
49835;BME280;35729;52.090;13.162;2022-08-19T01:43:41;100281.44;;;18.84;100.00
49835;BME280;35729;52.090;13.162;2022-08-19T01:46:10;100278.88;;;18.83;100.00
49835;BME280;35729;52.090;13.162;2022-08-19T01:48:42;100283.34;;;18.82;100.00
49835;BME280;35729;52.090;13.162;2022-08-19T01:51:12;100301.94;;;18.82;100.00
49835;BME280;35729;52.090;13.162;2022-08-19T01:53:47;100308.03;;;18.84;100.00
49835;BME280;35729;52.090;13.162;2022-08-19T01:56:16;100311.53;;;18.85;100.00
49835;BME280;35729;52.090;13.162;2022-08-19T01:58:48;100309.69;;;18.85;100.00
49835;BME280;35729;52.090;13.162;2022-08-19T02:01:18;100320.34;;;18.85;100.00
49835;BME280;35729;52.090;13.162;2022-08-19T02:03:47;100337.16;;;18.86;100.00
49835;BME280;35729;52.090;13.162;2022-08-19T02:06:17;100338.88;;;18.87;100.00
49835;BME280;35729;52.090;13.162;2022-08-19T02:08:48;100354.63;;;18.90;100.00
49835;BME280;35729;52.090;13.162;2022-08-19T02:11:21;100350.00;;;18.94;100.00
49835;BME280;35729;52.090;13.162;2022-08-19T02:13:52;100360.50;;;18.95;100.00
49835;BME280;35729;52.090;13.162;2022-08-19T02:16:21;100362.22;;;18.96;100.00
49835;BME280;35729;52.090;13.162;2022-08-19T02:18:50;100368.38;;;18.97;100.00
49835;BME280;35729;52.090;13.162;2022-08-19T02:21:20;100363.28;;;18.94;100.00
49835;BME280;35729;52.090;13.162;2022-08-19T02:23:52;100353.69;;;18.91;100.00
49835;BME280;35729;52.090;13.162;2022-08-19T02:26:21;100341.41;;;18.88;100.00
49835;BME280;35729;52.090;13.162;2022-08-19T02:28:51;100324.81;;;18.85;100.00
49835;BME280;35729;52.090;13.162;2022-08-19T02:31:24;100316.28;;;18.80;100.00
49835;BME280;35729;52.090;13.162;2022-08-19T02:33:53;100302.31;;;18.76;100.00
49835;BME280;35729;52.090;13.162;2022-08-19T02:36:24;100306.03;;;18.73;100.00
49835;BME280;35729;52.090;13.162;2022-08-19T02:38:55;100294.63;;;18.71;100.00
49835;BME280;35729;52.090;13.162;2022-08-19T02:41:30;100285.94;;;18.69;100.00
49835;BME280;35729;52.090;13.162;2022-08-19T02:44:01;100284.41;;;18.65;100.00
49835;BME280;35729;52.090;13.162;2022-08-19T02:46:32;100282.59;;;18.66;100.00
49835;BME280;35729;52.090;13.162;2022-08-19T02:49:04;100280.78;;;18.66;100.00
49835;BME280;35729;52.090;13.162;2022-08-19T02:51:37;100270.94;;;18.68;100.00
49835;BME280;35729;52.090;13.162;2022-08-19T02:54:10;100267.50;;;18.66;100.00
49835;BME280;35729;52.090;13.162;2022-08-19T02:56:41;100268.47;;;18.65;100.00
49835;BME280;35729;52.090;13.162;2022-08-19T02:59:10;100256.03;;;18.66;100.00
49835;BME280;35729;52.090;13.162;2022-08-19T03:01:40;100237.44;;;18.66;100.00
49835;BME280;35729;52.090;13.162;2022-08-19T03:04:11;100230.31;;;18.66;100.00
49835;BME280;35729;52.090;13.162;2022-08-19T03:06:43;100230.31;;;18.66;100.00
49835;BME280;35729;52.090;13.162;2022-08-19T03:09:15;100239.03;;;18.68;100.00
49835;BME280;35729;52.090;13.162;2022-08-19T03:11:45;100223.09;;;18.68;100.00
49835;BME280;35729;52.090;13.162;2022-08-19T03:14:13;100224.03;;;18.67;100.00
49835;BME280;35729;52.090;13.162;2022-08-19T03:16:45;100200.13;;;18.67;100.00
49835;BME280;35729;52.090;13.162;2022-08-19T03:19:15;100206.41;;;18.66;100.00
49835;BME280;35729;52.090;13.162;2022-08-19T03:21:44;100210.03;;;18.65;100.00
49835;BME280;35729;52.090;13.162;2022-08-19T03:24:16;100204.72;;;18.65;100.00
49835;BME280;35729;52.090;13.162;2022-08-19T03:26:47;100209.16;;;18.65;100.00
49835;BME280;35729;52.090;13.162;2022-08-19T03:29:17;100210.88;;;18.66;100.00
49835;BME280;35729;52.090;13.162;2022-08-19T03:31:46;100217.03;;;18.66;100.00
49835;BME280;35729;52.090;13.162;2022-08-19T03:34:17;100217.91;;;18.67;100.00
49835;BME280;35729;52.090;13.162;2022-08-19T03:36:46;100226.81;;;18.66;100.00
49835;BME280;35729;52.090;13.162;2022-08-19T03:39:18;100233.72;;;18.68;100.00
49835;BME280;35729;52.090;13.162;2022-08-19T03:41:48;100231.84;;;18.70;100.00
49835;BME280;35729;52.090;13.162;2022-08-19T03:44:20;100235.22;;;18.72;100.00
49835;BME280;35729;52.090;13.162;2022-08-19T03:46:50;100231.63;;;18.73;100.00
49835;BME280;35729;52.090;13.162;2022-08-19T03:49:20;100234.28;;;18.73;100.00
49835;BME280;35729;52.090;13.162;2022-08-19T03:51:49;100228.03;;;18.75;100.00
49835;BME280;35729;52.090;13.162;2022-08-19T03:54:22;100228.03;;;18.75;100.00
49835;BME280;35729;52.090;13.162;2022-08-19T03:56:52;100220.06;;;18.75;100.00
49835;BME280;35729;52.090;13.162;2022-08-19T03:59:23;100230.69;;;18.75;100.00
49835;BME280;35729;52.090;13.162;2022-08-19T04:01:53;100219.22;;;18.74;100.00
49835;BME280;35729;52.090;13.162;2022-08-19T04:04:22;100231.63;;;18.73;100.00
49835;BME280;35729;52.090;13.162;2022-08-19T04:06:52;100225.47;;;18.73;100.00
49835;BME280;35729;52.090;13.162;2022-08-19T04:09:23;100223.75;;;18.72;100.00
49835;BME280;35729;52.090;13.162;2022-08-19T04:11:55;100233.53;;;18.71;100.00
49835;BME280;35729;52.090;13.162;2022-08-19T04:14:29;100242.38;;;18.72;100.00
49835;BME280;35729;52.090;13.162;2022-08-19T04:16:59;100240.53;;;18.72;100.00
49835;BME280;35729;52.090;13.162;2022-08-19T04:19:30;100245.03;;;18.72;100.00
49835;BME280;35729;52.090;13.162;2022-08-19T04:21:59;100237.88;;;18.72;100.00
49835;BME280;35729;52.090;13.162;2022-08-19T04:24:30;100245.78;;;18.74;100.00
49835;BME280;35729;52.090;13.162;2022-08-19T04:26:59;100251.94;;;18.75;100.00
49835;BME280;35729;52.090;13.162;2022-08-19T04:29:28;100249.06;;;18.78;100.00
49835;BME280;35729;52.090;13.162;2022-08-19T04:31:57;100249.84;;;18.80;100.00
49835;BME280;35729;52.090;13.162;2022-08-19T04:34:27;100239.97;;;18.82;100.00
49835;BME280;35729;52.090;13.162;2022-08-19T04:36:58;100233.69;;;18.83;100.00
49835;BME280;35729;52.090;13.162;2022-08-19T04:39:30;100244.41;;;18.81;100.00
49835;BME280;35729;52.090;13.162;2022-08-19T04:42:11;100244.53;;;18.80;100.00
49835;BME280;35729;52.090;13.162;2022-08-19T04:44:52;100233.13;;;18.78;100.00
49835;BME280;35729;52.090;13.162;2022-08-19T04:47:21;100240.16;;;18.79;100.00
49835;BME280;35729;52.090;13.162;2022-08-19T04:49:49;100232.94;;;18.81;100.00
49835;BME280;35729;52.090;13.162;2022-08-19T04:52:18;100238.25;;;18.81;100.00
49835;BME280;35729;52.090;13.162;2022-08-19T04:54:49;100224.97;;;18.81;100.00
49835;BME280;35729;52.090;13.162;2022-08-19T04:57:17;100240.81;;;18.82;100.00
49835;BME280;35729;52.090;13.162;2022-08-19T04:59:46;100235.41;;;18.84;100.00
49835;BME280;35729;52.090;13.162;2022-08-19T05:02:14;100233.59;;;18.84;100.00
49835;BME280;35729;52.090;13.162;2022-08-19T05:04:43;100245.91;;;18.85;100.00
49835;BME280;35729;52.090;13.162;2022-08-19T05:07:11;100252.88;;;18.88;100.00
49835;BME280;35729;52.090;13.162;2022-08-19T05:09:40;100264.28;;;18.90;100.00
49835;BME280;35729;52.090;13.162;2022-08-19T05:12:11;100270.25;;;18.94;100.00
49835;BME280;35729;52.090;13.162;2022-08-19T05:14:39;100284.19;;;18.97;100.00
49835;BME280;35729;52.090;13.162;2022-08-19T05:17:08;100291.13;;;19.00;100.00
49835;BME280;35729;52.090;13.162;2022-08-19T05:19:36;100302.41;;;19.03;100.00
49835;BME280;35729;52.090;13.162;2022-08-19T05:22:17;100310.38;;;19.03;100.00
49835;BME280;35729;52.090;13.162;2022-08-19T05:25:04;100312.09;;;19.04;100.00
49835;BME280;35729;52.090;13.162;2022-08-19T05:27:36;100306.03;;;19.02;100.00
49835;BME280;35729;52.090;13.162;2022-08-19T05:30:05;100304.19;;;19.03;100.00
49835;BME280;35729;52.090;13.162;2022-08-19T05:32:34;100298.88;;;19.03;100.00
49835;BME280;35729;52.090;13.162;2022-08-19T05:35:03;100292.44;;;19.07;100.00
49835;BME280;35729;52.090;13.162;2022-08-19T05:37:32;100282.75;;;19.06;100.00
49835;BME280;35729;52.090;13.162;2022-08-19T05:40:01;100265.84;;;19.07;100.00
49835;BME280;35729;52.090;13.162;2022-08-19T05:42:31;100272.00;;;19.08;100.00
49835;BME280;35729;52.090;13.162;2022-08-19T05:45:03;100276.38;;;19.09;100.00
49835;BME280;35729;52.090;13.162;2022-08-19T05:47:32;100276.38;;;19.09;100.00
49835;BME280;35729;52.090;13.162;2022-08-19T05:50:01;100282.44;;;19.11;100.00
49835;BME280;35729;52.090;13.162;2022-08-19T05:52:29;100289.38;;;19.13;100.00
49835;BME280;35729;52.090;13.162;2022-08-19T05:54:58;100299.91;;;19.15;100.00
49835;BME280;35729;52.090;13.162;2022-08-19T05:57:27;100313.22;;;19.15;100.00
49835;BME280;35729;52.090;13.162;2022-08-19T05:59:55;100324.41;;;19.20;100.00
49835;BME280;35729;52.090;13.162;2022-08-19T06:02:29;100324.94;;;19.25;100.00
49835;BME280;35729;52.090;13.162;2022-08-19T06:04:58;100314.88;;;19.30;100.00
49835;BME280;35729;52.090;13.162;2022-08-19T06:07:27;100306.66;;;19.33;100.00
49835;BME280;35729;52.090;13.162;2022-08-19T06:09:56;100310.84;;;19.37;100.00
49835;BME280;35729;52.090;13.162;2022-08-19T06:12:25;100304.59;;;19.39;100.00
49835;BME280;35729;52.090;13.162;2022-08-19T06:14:54;100305.44;;;19.39;100.00
49835;BME280;35729;52.090;13.162;2022-08-19T06:17:23;100311.31;;;19.44;100.00
49835;BME280;35729;52.090;13.162;2022-08-19T06:19:54;100307.59;;;19.47;100.00
49835;BME280;35729;52.090;13.162;2022-08-19T06:22:22;100297.59;;;19.50;100.00
49835;BME280;35729;52.090;13.162;2022-08-19T06:24:51;100303.69;;;19.52;100.00
49835;BME280;35729;52.090;13.162;2022-08-19T06:27:21;100302.63;;;19.55;100.00
49835;BME280;35729;52.090;13.162;2022-08-19T06:29:50;100296.88;;;19.61;100.00
49835;BME280;35729;52.090;13.162;2022-08-19T06:32:19;100296.56;;;19.66;100.00
49835;BME280;35729;52.090;13.162;2022-08-19T06:34:47;100306.03;;;19.70;100.00
49835;BME280;35729;52.090;13.162;2022-08-19T06:37:19;100290.72;;;19.74;100.00
49835;BME280;35729;52.090;13.162;2022-08-19T06:39:48;100304.56;;;19.79;100.00
49835;BME280;35729;52.090;13.162;2022-08-19T06:42:17;100315.97;;;19.81;100.00
49835;BME280;35729;52.090;13.162;2022-08-19T06:44:47;100327.47;;;19.81;100.00
49835;BME280;35729;52.090;13.162;2022-08-19T06:47:19;100333.47;;;19.85;100.00
49835;BME280;35729;52.090;13.162;2022-08-19T06:49:47;100327.84;;;19.90;100.00
49835;BME280;35729;52.090;13.162;2022-08-19T06:52:16;100333.81;;;19.93;100.00
49835;BME280;35729;52.090;13.162;2022-08-19T06:54:47;100348.44;;;20.00;100.00
49835;BME280;35729;52.090;13.162;2022-08-19T06:57:16;100341.94;;;20.05;100.00
49835;BME280;35729;52.090;13.162;2022-08-19T06:59:44;100338.84;;;20.11;100.00
49835;BME280;35729;52.090;13.162;2022-08-19T07:02:13;100341.19;;;20.15;100.00
49835;BME280;35729;52.090;13.162;2022-08-19T07:04:41;100353.66;;;20.15;100.00
49835;BME280;35729;52.090;13.162;2022-08-19T07:07:11;100351.19;;;20.12;100.00
49835;BME280;35729;52.090;13.162;2022-08-19T07:09:43;100357.28;;;20.14;100.00
49835;BME280;35729;52.090;13.162;2022-08-19T07:12:14;100355.16;;;20.19;100.00
49835;BME280;35729;52.090;13.162;2022-08-19T07:14:49;100351.13;;;20.26;100.00
49835;BME280;35729;52.090;13.162;2022-08-19T07:17:18;100348.97;;;20.31;100.00
49835;BME280;35729;52.090;13.162;2022-08-19T07:19:46;100364.75;;;20.34;100.00
49835;BME280;35729;52.090;13.162;2022-08-19T07:22:15;100370.00;;;20.36;100.00
49835;BME280;35729;52.090;13.162;2022-08-19T07:24:46;100369.00;;;20.37;100.00
49835;BME280;35729;52.090;13.162;2022-08-19T07:27:18;100381.38;;;20.38;100.00
49835;BME280;35729;52.090;13.162;2022-08-19T07:29:46;100383.72;;;20.43;100.00
49835;BME280;35729;52.090;13.162;2022-08-19T07:32:15;100382.56;;;20.47;100.00
49835;BME280;35729;52.090;13.162;2022-08-19T07:34:44;100383.31;;;20.49;100.00
49835;BME280;35729;52.090;13.162;2022-08-19T07:37:12;100382.56;;;20.47;100.00
49835;BME280;35729;52.090;13.162;2022-08-19T07:39:41;100385.97;;;20.49;100.00
49835;BME280;35729;52.090;13.162;2022-08-19T07:42:10;100386.81;;;20.49;100.00
49835;BME280;35729;52.090;13.162;2022-08-19T07:44:42;100386.72;;;20.51;100.00
49835;BME280;35729;52.090;13.162;2022-08-19T07:47:11;100393.00;;;20.50;100.00
49835;BME280;35729;52.090;13.162;2022-08-19T07:49:47;100393.97;;;20.49;100.00
49835;BME280;35729;52.090;13.162;2022-08-19T07:52:16;100389.69;;;20.46;100.00
49835;BME280;35729;52.090;13.162;2022-08-19T07:54:45;100399.28;;;20.49;100.00
49835;BME280;35729;52.090;13.162;2022-08-19T07:57:15;100398.75;;;20.44;100.00
49835;BME280;35729;52.090;13.162;2022-08-19T07:59:47;100398.88;;;20.42;100.00
49835;BME280;35729;52.090;13.162;2022-08-19T08:02:15;100402.50;;;20.41;100.00
49835;BME280;35729;52.090;13.162;2022-08-19T08:04:44;100408.66;;;20.42;100.00
49835;BME280;35729;52.090;13.162;2022-08-19T08:07:24;100412.09;;;20.44;100.00
49835;BME280;35729;52.090;13.162;2022-08-19T08:10:06;100407.59;;;20.44;100.00
49835;BME280;35729;52.090;13.162;2022-08-19T08:12:37;100412.63;;;20.49;100.00
49835;BME280;35729;52.090;13.162;2022-08-19T08:15:13;100403.75;;;20.48;100.00
49835;BME280;35729;52.090;13.162;2022-08-19T08:17:44;100409.94;;;20.49;100.00
49835;BME280;35729;52.090;13.162;2022-08-19T08:20:13;100405.56;;;20.48;100.00
49835;BME280;35729;52.090;13.162;2022-08-19T08:22:46;100416.78;;;20.53;100.00
49835;BME280;35729;52.090;13.162;2022-08-19T08:25:27;100418.47;;;20.54;100.00
49835;BME280;35729;52.090;13.162;2022-08-19T08:27:56;100430.75;;;20.57;100.00
49835;BME280;35729;52.090;13.162;2022-08-19T08:30:29;100428.91;;;20.57;100.00
49835;BME280;35729;52.090;13.162;2022-08-19T08:33:00;100433.28;;;20.58;100.00
49835;BME280;35729;52.090;13.162;2022-08-19T08:35:29;100433.28;;;20.58;100.00
49835;BME280;35729;52.090;13.162;2022-08-19T08:37:57;100428.84;;;20.59;100.00
49835;BME280;35729;52.090;13.162;2022-08-19T08:40:29;100424.66;;;20.55;100.00
49835;BME280;35729;52.090;13.162;2022-08-19T08:43:04;100433.28;;;20.58;100.00
49835;BME280;35729;52.090;13.162;2022-08-19T08:45:43;100433.19;;;20.60;100.00
49835;BME280;35729;52.090;13.162;2022-08-19T08:48:19;100439.38;;;20.60;100.00
49835;BME280;35729;52.090;13.162;2022-08-19T08:50:50;100443.00;;;20.59;100.00
49835;BME280;35729;52.090;13.162;2022-08-19T08:53:22;100434.06;;;20.60;100.00
49835;BME280;35729;52.090;13.162;2022-08-19T08:55:52;100437.44;;;20.62;100.00
49835;BME280;35729;52.090;13.162;2022-08-19T08:58:50;100440.88;;;20.64;100.00
49835;BME280;35729;52.090;13.162;2022-08-19T09:01:22;100435.53;;;20.64;100.00
49835;BME280;35729;52.090;13.162;2022-08-19T09:03:51;100425.63;;;20.66;100.00
49835;BME280;35729;52.090;13.162;2022-08-19T09:06:25;100421.25;;;20.65;100.00
49835;BME280;35729;52.090;13.162;2022-08-19T09:09:14;100430.84;;;20.68;100.00
49835;BME280;35729;52.090;13.162;2022-08-19T09:11:54;100431.91;;;20.65;100.00
49835;BME280;35729;52.090;13.162;2022-08-19T09:14:34;100429.38;;;20.64;100.00
49835;BME280;35729;52.090;13.162;2022-08-19T09:17:09;100421.44;;;20.62;100.00
49835;BME280;35729;52.090;13.162;2022-08-19T09:19:50;100426.59;;;20.65;100.00
49835;BME280;35729;52.090;13.162;2022-08-19T09:22:19;100426.19;;;20.72;100.00
49835;BME280;35729;52.090;13.162;2022-08-19T09:24:49;100421.59;;;20.74;100.00
49835;BME280;35729;52.090;13.162;2022-08-19T09:27:18;100433.78;;;20.78;100.00
49835;BME280;35729;52.090;13.162;2022-08-19T09:29:49;100422.88;;;20.81;100.00
49835;BME280;35729;52.090;13.162;2022-08-19T09:32:22;100412.97;;;20.83;100.00
49835;BME280;35729;52.090;13.162;2022-08-19T09:34:51;100412.75;;;20.86;100.00
49835;BME280;35729;52.090;13.162;2022-08-19T09:37:20;100407.84;;;20.93;100.00
49835;BME280;35729;52.090;13.162;2022-08-19T09:39:49;100417.97;;;21.01;100.00
49835;BME280;35729;52.090;13.162;2022-08-19T09:42:18;100427.44;;;21.05;100.00
49835;BME280;35729;52.090;13.162;2022-08-19T09:44:47;100428.22;;;21.07;100.00
49835;BME280;35729;52.090;13.162;2022-08-19T09:47:15;100427.34;;;21.06;100.00
49835;BME280;35729;52.090;13.162;2022-08-19T09:49:46;100438.34;;;21.02;98.75
49835;BME280;35729;52.090;13.162;2022-08-19T09:52:16;100436.63;;;21.01;100.00
49835;BME280;35729;52.090;13.162;2022-08-19T09:54:44;100435.75;;;21.00;100.00
49835;BME280;35729;52.090;13.162;2022-08-19T09:57:12;100435.13;;;20.96;100.00
49835;BME280;35729;52.090;13.162;2022-08-19T09:59:41;100431.72;;;20.94;100.00
49835;BME280;35729;52.090;13.162;2022-08-19T10:02:10;100435.34;;;20.93;100.00
49835;BME280;35729;52.090;13.162;2022-08-19T10:04:38;100429.25;;;20.91;99.88
49835;BME280;35729;52.090;13.162;2022-08-19T10:07:22;100422.25;;;20.90;100.00
49835;BME280;35729;52.090;13.162;2022-08-19T10:09:50;100429.50;;;20.88;100.00
49835;BME280;35729;52.090;13.162;2022-08-19T10:12:19;100424.28;;;20.87;100.00
49835;BME280;35729;52.090;13.162;2022-08-19T10:14:48;100428.97;;;20.83;99.58
49835;BME280;35729;52.090;13.162;2022-08-19T10:17:18;100446.22;;;20.77;99.66
49835;BME280;35729;52.090;13.162;2022-08-19T10:19:47;100440.38;;;20.72;99.12
49835;BME280;35729;52.090;13.162;2022-08-19T10:22:15;100431.09;;;20.65;100.00
49835;BME280;35729;52.090;13.162;2022-08-19T10:24:48;100431.50;;;20.59;100.00
49835;BME280;35729;52.090;13.162;2022-08-19T10:27:17;100436.81;;;20.59;100.00
49835;BME280;35729;52.090;13.162;2022-08-19T10:29:46;100447.69;;;20.56;100.00
49835;BME280;35729;52.090;13.162;2022-08-19T10:32:15;100447.56;;;20.57;100.00
49835;BME280;35729;52.090;13.162;2022-08-19T10:34:43;100446.94;;;20.54;99.51
49835;BME280;35729;52.090;13.162;2022-08-19T10:37:12;100450.88;;;20.48;98.61
49835;BME280;35729;52.090;13.162;2022-08-19T10:39:40;100458.75;;;20.49;100.00
49835;BME280;35729;52.090;13.162;2022-08-19T10:42:11;100444.78;;;20.46;100.00
49835;BME280;35729;52.090;13.162;2022-08-19T10:44:41;100452.16;;;20.42;100.00
49835;BME280;35729;52.090;13.162;2022-08-19T10:47:10;100449.56;;;20.41;100.00
49835;BME280;35729;52.090;13.162;2022-08-19T10:49:39;100470.03;;;20.27;98.48
49835;BME280;35729;52.090;13.162;2022-08-19T10:52:20;100449.13;;;20.21;99.94
49835;BME280;35729;52.090;13.162;2022-08-19T10:55:01;100448.47;;;20.17;100.00
49835;BME280;35729;52.090;13.162;2022-08-19T10:57:45;100433.13;;;20.08;100.00
49835;BME280;35729;52.090;13.162;2022-08-19T11:00:14;100445.56;;;20.08;100.00
49835;BME280;35729;52.090;13.162;2022-08-19T11:02:43;100452.06;;;20.04;100.00
49835;BME280;35729;52.090;13.162;2022-08-19T11:05:11;100440.97;;;19.97;100.00
49835;BME280;35729;52.090;13.162;2022-08-19T11:07:41;100439.38;;;19.94;100.00
49835;BME280;35729;52.090;13.162;2022-08-19T11:10:12;100440.31;;;19.93;100.00
49835;BME280;35729;52.090;13.162;2022-08-19T11:12:47;100435.00;;;19.93;100.00
49835;BME280;35729;52.090;13.162;2022-08-19T11:15:19;100439.44;;;19.93;100.00
49835;BME280;35729;52.090;13.162;2022-08-19T11:17:48;100444.03;;;19.91;100.00
49835;BME280;35729;52.090;13.162;2022-08-19T11:20:19;100447.53;;;19.91;100.00
49835;BME280;35729;52.090;13.162;2022-08-19T11:22:51;100455.75;;;19.88;100.00
49835;BME280;35729;52.090;13.162;2022-08-19T11:25:19;100471.88;;;19.85;100.00
49835;BME280;35729;52.090;13.162;2022-08-19T11:27:51;100459.63;;;19.82;100.00
49835;BME280;35729;52.090;13.162;2022-08-19T11:30:19;100472.19;;;19.80;100.00
49835;BME280;35729;52.090;13.162;2022-08-19T11:32:48;100458.94;;;19.79;100.00
49835;BME280;35729;52.090;13.162;2022-08-19T11:35:16;100468.84;;;19.77;100.00
49835;BME280;35729;52.090;13.162;2022-08-19T11:37:45;100470.56;;;19.78;100.00
49835;BME280;35729;52.090;13.162;2022-08-19T11:40:14;100479.41;;;19.78;100.00
49835;BME280;35729;52.090;13.162;2022-08-19T11:42:42;100493.38;;;19.82;100.00
49835;BME280;35729;52.090;13.162;2022-08-19T11:45:27;100489.84;;;19.81;100.00
49835;BME280;35729;52.090;13.162;2022-08-19T11:47:56;100487.97;;;19.83;100.00
49835;BME280;35729;52.090;13.162;2022-08-19T11:50:24;100494.59;;;19.76;100.00
49835;BME280;35729;52.090;13.162;2022-08-19T11:52:54;100492.59;;;19.80;100.00
49835;BME280;35729;52.090;13.162;2022-08-19T11:55:23;100503.13;;;19.81;100.00
49835;BME280;35729;52.090;13.162;2022-08-19T11:57:52;100504.78;;;19.84;100.00
49835;BME280;35729;52.090;13.162;2022-08-19T12:00:20;100500.34;;;19.84;100.00
49835;BME280;35729;52.090;13.162;2022-08-19T12:02:51;100491.41;;;19.85;100.00
49835;BME280;35729;52.090;13.162;2022-08-19T12:05:20;100498.34;;;19.88;100.00
49835;BME280;35729;52.090;13.162;2022-08-19T12:07:48;100501.00;;;19.88;100.00
49835;BME280;35729;52.090;13.162;2022-08-19T12:10:17;100496.41;;;19.90;100.00
49835;BME280;35729;52.090;13.162;2022-08-19T12:12:46;100498.13;;;19.91;100.00
49835;BME280;35729;52.090;13.162;2022-08-19T12:15:15;100497.38;;;19.89;100.00
49835;BME280;35729;52.090;13.162;2022-08-19T12:17:43;100495.66;;;19.88;100.00
49835;BME280;35729;52.090;13.162;2022-08-19T12:20:15;100501.94;;;19.87;100.00
49835;BME280;35729;52.090;13.162;2022-08-19T12:22:43;100510.88;;;19.86;100.00
49835;BME280;35729;52.090;13.162;2022-08-19T12:25:14;100511.81;;;19.85;100.00
49835;BME280;35729;52.090;13.162;2022-08-19T12:27:42;100518.00;;;19.85;100.00
49835;BME280;35729;52.090;13.162;2022-08-19T12:30:13;100522.38;;;19.86;100.00
49835;BME280;35729;52.090;13.162;2022-08-19T12:32:41;100521.34;;;19.89;100.00
49835;BME280;35729;52.090;13.162;2022-08-19T12:35:10;100532.00;;;19.89;100.00
49835;BME280;35729;52.090;13.162;2022-08-19T12:37:41;100532.94;;;19.88;100.00
49835;BME280;35729;52.090;13.162;2022-08-19T12:40:11;100539.22;;;19.87;100.00
49835;BME280;35729;52.090;13.162;2022-08-19T12:42:40;100542.72;;;19.88;100.00
49835;BME280;35729;52.090;13.162;2022-08-19T12:45:09;100533.88;;;19.87;100.00
49835;BME280;35729;52.090;13.162;2022-08-19T12:47:39;100534.72;;;19.88;100.00